Grants, NM

7:14 PM MDT on August 24, 2016 (GMT -0600)
Grants-Milan Municipal | | Change Station
Active Advisory: Areal Flood Advisory

Elev 6519 ft 35.17 °N, 107.90 °W | Updated 19 minutes ago

Clear
Clear
73 °F
Feels Like 73 °F
N
8
Wind Variable Wind from North

Today
High -- | Low -- °F
--% Chance of Precip.
Yesterday
High -- | Low -- °F
Precip. -- in
Pressure 30.24 in
Visibility 10.0 miles
Clouds Clear
Dew Point 34 °F
Humidity 23%
Rainfall 0.00 in
Snow Depth Not available.
6:38 AM 7:48 PM
Waning Gibbous, 51% visible
METAR KGNT 250055Z AUTO 01007KT 10SM CLR 23/01 A3024 RMK AO2 T02300010
Pressure 30.24 in
Visibility 10.0 miles
Clouds Clear
Dew Point 34 °F
Humidity 23%
Rainfall 0.00 in
Snow Depth Not available.
6:38 AM 7:48 PM
Waning Gibbous, 51% visible
METAR KGNT 250055Z AUTO 01007KT 10SM CLR 23/01 A3024 RMK AO2 T02300010

10-Day Weather Forecast

Almanac

Astronomy

Aug. 24, 2016 Rise Set
Actual Time
Civil Twilight
Nautical Twilight
Astronomical Twilight
Moon
Length of Visible Light
Length of Day
Tomorrow will be .
, % of the Moon is Illuminated

Today's Extremes

State Highs State Lows

Community

WunderPhotos

Upload Photos

1,934,766 photos uploaded!

WunderBlog® & News

Nearby

Air Quality

  Air Quality AQ Index Pollutant
Not available.

Snow Depth

Station Depth Elevation

Earthquake Activity

City Distance Mag. Time & Date
Minimum magnitude displayed is 2.5.

Coastal Water Temperatures

Place Temperature

Stations

Nearby Weather Stations

Station Location Temp. Windchill Dew Point Humidity Wind Precip. Elev Updated Type
                   

Watches & Warnings

Areal Flood Advisory
Issued: 5:36 PM MDT Aug. 24, 2016 – National Weather Service

The National Weather Service in Albuquerque has issued a

* Arroyo and Small Stream Flood Advisory for...
northwestern Catron County in west central New Mexico...

* until 730 PM MDT

* at 534 PM MDT... National Weather Service Doppler radar indicated
heavy rain due to thunderstorms along a line extending from Salt
Lake southward to just east of Red Hill. Between 1 and 1.5 inches
of rain has fallen with these storms and another half inch is
possible. Minor flooding is possible along State Highway 601 and
U.S. Highway 60. High and fast water flows are also possible in
largo creek and Agua Fria creek.

* Locations impacted include...
Salt Lake and Quemado Lake.

Precautionary/preparedness actions...

Remember... ditches are deadly. A gentle flow of water can become a
raging torrent in a matter of minutes.

Do not drive your vehicle into areas where the water covers the
roadway. The water depth may be too great to allow your car to cross
safely.


Lat... Lon 3457 10870 3405 10845 3397 10873 3456 10905
      3458 10904


34